createdAt,value
2023-02-14T00:00:09.123Z,12.48
2023-02-14T00:03:13.485Z,12.68
2023-02-14T00:06:15.852Z,11.57
2023-02-14T00:09:19.241Z,12.23
2023-02-14T00:12:21.391Z,11.85
2023-02-14T00:15:24.860Z,11.18
2023-02-14T00:18:47.428Z,11.50
2023-02-14T00:21:50.371Z,11.63
2023-02-14T00:24:52.545Z,11.05
2023-02-14T00:27:55.682Z,10.93
2023-02-14T00:30:58.537Z,11.55
2023-02-14T00:34:01.208Z,10.77
2023-02-14T00:37:04.381Z,11.45
2023-02-14T00:40:07.663Z,11.10
2023-02-14T00:43:10.093Z,10.85
2023-02-14T00:46:12.891Z,10.65
2023-02-14T00:49:15.819Z,10.93
2023-02-14T00:52:18.470Z,10.05
2023-02-14T00:55:20.614Z,11.02
2023-02-14T00:58:23.080Z,10.05
2023-02-14T01:01:25.809Z,10.80
2023-02-14T01:04:28.360Z,10.40
2023-02-14T01:07:30.504Z,10.88
2023-02-14T01:10:33.056Z,10.75
2023-02-14T01:13:35.369Z,9.98
2023-02-14T01:16:38.889Z,9.82
2023-02-14T01:19:42.506Z,10.27
2023-02-14T01:22:44.955Z,9.10
2023-02-14T01:25:48.440Z,10.13
2023-02-14T01:28:51.085Z,9.10
2023-02-14T01:31:53.297Z,9.77
2023-02-14T01:34:56.092Z,9.45
2023-02-14T01:37:58.390Z,9.15
2023-02-14T01:41:01.172Z,9.50
2023-02-14T01:44:06.968Z,9.45
2023-02-14T01:47:10.575Z,8.88
2023-02-14T01:50:37.941Z,8.90
2023-02-14T01:53:40.493Z,8.98
2023-02-14T01:56:47.712Z,8.45
2023-02-14T01:59:55.652Z,9.65
2023-02-14T02:03:00.182Z,9.35
2023-02-14T02:06:15.254Z,9.82
2023-02-14T02:09:41.290Z,9.75
2023-02-14T02:12:44.228Z,11.02
2023-02-14T02:15:58.642Z,12.57
2023-02-14T02:19:28.748Z,13.05
2023-02-14T02:22:46.035Z,12.93
2023-02-14T02:26:13.416Z,12.20
2023-02-14T02:29:41.623Z,12.60
2023-02-14T02:33:00.681Z,12.85
2023-02-14T02:36:31.959Z,13.90
2023-02-14T02:40:02.523Z,12.48
2023-02-14T02:43:26.644Z,12.35
2023-02-14T02:46:52.572Z,12.88
2023-02-14T02:50:22.904Z,13.25
2023-02-14T02:53:49.859Z,12.77
2023-02-14T02:56:57.397Z,13.23
2023-02-14T03:00:02.239Z,12.82
2023-02-14T03:03:23.918Z,13.07
2023-02-14T03:06:26.480Z,12.43
2023-02-14T03:09:28.564Z,13.52
2023-02-14T03:12:33.865Z,14.02
2023-02-14T03:16:20.456Z,14.10
2023-02-14T03:19:31.093Z,13.30
2023-02-14T03:22:43.655Z,13.10
2023-02-14T03:25:50.213Z,12.50
2023-02-14T03:29:30.608Z,13.60
2023-02-14T03:32:43.453Z,13.50
2023-02-14T03:35:46.297Z,13.27
2023-02-14T03:39:15.947Z,14.48
2023-02-14T03:42:30.659Z,13.20
2023-02-14T03:45:37.096Z,13.85
2023-02-14T03:48:41.972Z,13.70
2023-02-14T03:51:49.618Z,13.75
2023-02-14T03:54:54.368Z,13.93
2023-02-14T03:58:14.188Z,13.82
2023-02-14T04:01:35.986Z,13.68
2023-02-14T04:04:44.105Z,13.25
2023-02-14T04:07:52.372Z,13.20
2023-02-14T04:10:58.274Z,13.18
2023-02-14T04:14:01.688Z,13.20
2023-02-14T04:17:23.954Z,13.23
2023-02-14T04:20:27.245Z,14.38
2023-02-14T04:23:30.081Z,13.48
2023-02-14T04:26:32.186Z,14.07
2023-02-14T04:29:34.618Z,13.60
2023-02-14T04:32:36.754Z,14.85
2023-02-14T04:35:39.219Z,13.68
2023-02-14T04:38:41.455Z,13.60
2023-02-14T04:41:44.048Z,14.57
2023-02-14T04:44:46.524Z,13.05
2023-02-14T04:47:49.020Z,13.48
2023-02-14T04:50:55.319Z,12.50
2023-02-14T04:53:57.864Z,13.45
2023-02-14T04:57:00.356Z,13.57
2023-02-14T05:00:04.017Z,13.95
2023-02-14T05:03:06.286Z,13.23
2023-02-14T05:06:08.856Z,13.23
2023-02-14T05:09:11.058Z,13.82
2023-02-14T05:12:13.546Z,13.40
2023-02-14T05:15:15.718Z,13.30
2023-02-14T05:18:18.240Z,13.55
2023-02-14T05:21:20.522Z,14.27
2023-02-14T05:24:23.165Z,13.73
2023-02-14T05:27:25.370Z,13.38
2023-02-14T05:30:28.936Z,14.18
2023-02-14T05:33:31.152Z,13.70
2023-02-14T05:36:33.819Z,13.93
2023-02-14T05:39:36.122Z,14.05
2023-02-14T05:42:38.578Z,13.68
2023-02-14T05:45:40.734Z,14.73
2023-02-14T05:48:44.376Z,13.60
2023-02-14T05:51:46.556Z,14.38
2023-02-14T05:54:49.034Z,15.13
2023-02-14T05:57:51.258Z,15.05
2023-02-14T06:00:53.751Z,15.60
2023-02-14T06:03:56.204Z,14.43
2023-02-14T06:06:58.373Z,15.13
2023-02-14T06:10:00.865Z,15.25
2023-02-14T06:13:03.053Z,15.95
2023-02-14T06:16:05.787Z,14.68
2023-02-14T06:19:07.965Z,15.85
2023-02-14T06:22:10.439Z,15.25
2023-02-14T06:25:12.600Z,14.85
2023-02-14T06:28:15.046Z,15.05
2023-02-14T06:31:18.182Z,14.32
2023-02-14T06:34:20.711Z,15.68
2023-02-14T06:37:22.938Z,16.73
2023-02-14T06:40:25.414Z,16.75
2023-02-14T06:43:27.696Z,16.37
2023-02-14T06:46:30.328Z,16.15
2023-02-14T06:49:32.613Z,17.58
2023-02-14T06:52:36.134Z,16.65
2023-02-14T06:55:39.525Z,16.37
2023-02-14T06:58:41.942Z,16.40
2023-02-14T07:01:44.206Z,17.00
2023-02-14T07:04:46.700Z,17.55
2023-02-14T07:07:48.935Z,17.02
2023-02-14T07:10:51.390Z,16.65
2023-02-14T07:13:53.938Z,16.48
2023-02-14T07:16:56.400Z,17.25
2023-02-14T07:19:58.760Z,17.15
2023-02-14T07:23:01.433Z,16.67
2023-02-14T07:26:03.760Z,17.90
2023-02-14T07:29:06.403Z,17.77
2023-02-14T07:32:08.763Z,17.10
2023-02-14T07:35:12.577Z,17.92
2023-02-14T07:38:16.037Z,16.10
2023-02-14T07:41:18.579Z,16.80
2023-02-14T07:44:20.916Z,16.27
2023-02-14T07:47:25.009Z,16.58
2023-02-14T07:50:28.512Z,16.50
2023-02-14T07:53:31.245Z,15.80
2023-02-14T07:56:33.682Z,15.82
2023-02-14T07:59:36.335Z,16.20
2023-02-14T08:02:39.130Z,19.40
2023-02-14T08:05:41.898Z,30.30
2023-02-14T08:08:44.866Z,29.20
2023-02-14T08:12:06.134Z,29.55
2023-02-14T08:15:27.531Z,28.83
2023-02-14T08:18:31.949Z,28.40
2023-02-14T08:21:35.314Z,28.15
2023-02-14T08:24:37.898Z,29.67
2023-02-14T08:27:40.192Z,29.33
2023-02-14T08:30:44.101Z,28.83
2023-02-14T08:33:46.287Z,28.38
2023-02-14T08:36:48.831Z,27.85
2023-02-14T08:39:50.989Z,26.00
2023-02-14T08:42:53.477Z,27.02
2023-02-14T08:45:55.709Z,27.17
2023-02-14T08:48:58.194Z,25.50
2023-02-14T08:52:00.523Z,23.35
2023-02-14T08:55:03.100Z,24.40
2023-02-14T08:58:05.952Z,22.15
2023-02-14T09:01:13.428Z,24.20
2023-02-14T09:04:15.750Z,23.52
2023-02-14T09:07:19.695Z,25.02
2023-02-14T09:10:22.101Z,24.37
2023-02-14T09:13:24.634Z,24.33
2023-02-14T09:16:26.849Z,24.73
2023-02-14T09:19:29.268Z,22.55
2023-02-14T09:22:31.597Z,21.80
2023-02-14T09:25:34.080Z,22.25
2023-02-14T09:28:36.817Z,21.50
2023-02-14T09:31:39.787Z,21.73
2023-02-14T09:34:42.089Z,21.00
2023-02-14T09:37:45.476Z,20.33
2023-02-14T09:40:48.719Z,19.80
2023-02-14T09:43:59.218Z,20.10
2023-02-14T09:47:11.258Z,20.10
2023-02-14T09:50:22.371Z,18.65
2023-02-14T09:53:30.482Z,19.42
2023-02-14T09:56:51.625Z,17.87
2023-02-14T10:00:14.651Z,17.02
2023-02-14T10:03:17.146Z,13.32
2023-02-14T10:06:42.781Z,13.38
2023-02-14T10:10:00.535Z,12.93
2023-02-14T10:13:17.003Z,13.98
2023-02-14T10:16:32.441Z,13.98
2023-02-14T10:19:41.519Z,14.80
2023-02-14T10:22:54.489Z,13.88
2023-02-14T10:26:01.874Z,13.85
2023-02-14T10:29:12.219Z,13.75
2023-02-14T10:32:19.805Z,13.03
2023-02-14T10:35:25.163Z,12.88
2023-02-14T10:39:03.519Z,12.02
2023-02-14T10:42:43.101Z,12.10
2023-02-14T10:46:24.784Z,13.90
2023-02-14T10:49:40.440Z,12.85
2023-02-14T10:53:04.735Z,12.43
2023-02-14T10:56:19.929Z,11.40
2023-02-14T10:59:27.798Z,11.35
2023-02-14T11:02:35.038Z,12.13
2023-02-14T11:05:46.162Z,11.77
2023-02-14T11:08:49.076Z,11.43
2023-02-14T11:11:53.202Z,10.40
2023-02-14T11:15:28.391Z,10.23
2023-02-14T11:18:35.760Z,10.48
2023-02-14T11:21:40.492Z,10.63
2023-02-14T11:24:42.852Z,11.27
2023-02-14T11:27:51.345Z,10.27
2023-02-14T11:30:54.059Z,9.95
2023-02-14T11:33:57.914Z,10.43
2023-02-14T11:37:00.617Z,9.77
2023-02-14T11:40:05.292Z,10.80
2023-02-14T11:43:13.809Z,10.68
2023-02-14T11:46:27.044Z,10.02
2023-02-14T11:49:33.583Z,9.98
2023-02-14T11:52:47.508Z,10.40
2023-02-14T11:55:58.447Z,10.63
2023-02-14T11:59:05.721Z,10.38
2023-02-14T12:02:19.949Z,10.13
2023-02-14T12:05:33.614Z,9.95
2023-02-14T12:08:41.951Z,9.57
2023-02-14T12:12:01.304Z,9.85
2023-02-14T12:15:27.658Z,10.85
2023-02-14T12:18:49.052Z,11.00
2023-02-14T12:25:05.914Z,11.40
2023-02-14T12:28:15.559Z,11.10
2023-02-14T12:31:19.013Z,11.32
2023-02-14T12:34:21.486Z,12.23
2023-02-14T12:38:16.520Z,10.93
2023-02-14T12:41:24.701Z,10.65
2023-02-14T12:44:39.443Z,10.35
2023-02-14T12:48:16.307Z,10.23
2023-02-14T12:51:46.815Z,10.10
2023-02-14T12:55:13.237Z,9.85
2023-02-14T12:58:33.944Z,9.88
2023-02-14T13:01:57.869Z,11.20
2023-02-14T13:05:20.137Z,10.10
2023-02-14T13:08:34.539Z,10.25
2023-02-14T13:11:50.337Z,10.52
2023-02-14T13:15:10.022Z,10.32
2023-02-14T13:19:02.557Z,10.98
2023-02-14T13:22:08.766Z,11.00
2023-02-14T13:25:33.778Z,11.00
2023-02-14T13:28:38.505Z,11.00
2023-02-14T13:31:42.182Z,10.88
2023-02-14T13:34:47.865Z,10.75
2023-02-14T13:37:55.488Z,10.57
2023-02-14T13:41:01.143Z,10.05
2023-02-14T13:44:05.447Z,10.95
2023-02-14T13:47:15.624Z,10.88
2023-02-14T13:50:21.633Z,11.35
2023-02-14T13:53:45.075Z,10.13
2023-02-14T13:56:48.668Z,10.85
2023-02-14T14:00:19.393Z,10.45
2023-02-14T14:03:31.470Z,11.15
2023-02-14T14:07:05.480Z,11.55
2023-02-14T14:10:31.124Z,10.70
2023-02-14T14:13:42.545Z,11.00
2023-02-14T14:16:58.910Z,11.00
2023-02-14T14:20:23.160Z,10.50
2023-02-14T14:23:44.666Z,11.00
2023-02-14T14:26:50.685Z,10.50
2023-02-14T14:30:00.648Z,10.38
2023-02-14T14:33:24.932Z,10.88
2023-02-14T14:36:28.022Z,11.68
2023-02-14T14:39:32.760Z,10.57
2023-02-14T14:42:40.762Z,10.82
2023-02-14T14:45:46.888Z,11.12
2023-02-14T14:48:55.407Z,10.45
2023-02-14T14:51:57.811Z,11.02
2023-02-14T14:55:02.193Z,11.00
2023-02-14T14:58:13.175Z,10.82
2023-02-14T15:01:38.328Z,10.45
2023-02-14T15:04:40.706Z,10.80
2023-02-14T15:07:43.248Z,11.38
2023-02-14T15:11:01.811Z,10.68
2023-02-14T15:14:15.659Z,10.68
2023-02-14T15:17:27.658Z,10.48
2023-02-14T15:20:30.899Z,10.18
2023-02-14T15:23:33.260Z,10.68
2023-02-14T15:26:36.203Z,11.10
2023-02-14T15:29:38.475Z,10.82
2023-02-14T15:32:41.308Z,11.02
2023-02-14T15:35:44.043Z,10.10
2023-02-14T15:38:47.332Z,9.93
2023-02-14T15:41:53.872Z,10.50
2023-02-14T15:45:24.033Z,10.90
2023-02-14T15:48:37.807Z,11.25
2023-02-14T15:51:43.289Z,10.77
2023-02-14T15:54:47.789Z,10.93
2023-02-14T15:57:58.968Z,11.25
2023-02-14T16:01:02.427Z,11.57
2023-02-14T16:04:07.443Z,11.50
2023-02-14T16:07:25.263Z,11.30
2023-02-14T16:10:29.566Z,12.35
2023-02-14T16:13:42.302Z,11.18
2023-02-14T16:17:14.000Z,11.27
2023-02-14T16:20:45.350Z,11.75
2023-02-14T16:24:07.871Z,12.43
2023-02-14T16:27:13.239Z,11.73
2023-02-14T16:30:19.898Z,13.00
2023-02-14T16:33:30.682Z,12.45
2023-02-14T16:36:34.148Z,11.40
2023-02-14T16:39:39.372Z,11.30
2023-02-14T16:42:42.686Z,11.60
2023-02-14T16:45:45.576Z,12.60
2023-02-14T16:48:52.870Z,11.90
2023-02-14T16:51:55.405Z,11.57
2023-02-14T16:55:00.644Z,12.35
2023-02-14T16:58:03.373Z,11.57
2023-02-14T17:01:07.984Z,11.95
2023-02-14T17:04:11.456Z,11.50
2023-02-14T17:07:15.971Z,11.52
2023-02-14T17:10:20.009Z,11.80
2023-02-14T17:13:26.516Z,11.48
2023-02-14T17:16:31.205Z,13.05
2023-02-14T17:19:34.253Z,16.15
2023-02-14T17:22:37.740Z,17.30
2023-02-14T17:25:41.863Z,17.08
2023-02-14T17:28:44.668Z,17.75
2023-02-14T17:31:47.483Z,18.15
2023-02-14T17:34:50.384Z,17.58
2023-02-14T17:37:57.298Z,18.80
2023-02-14T17:41:00.159Z,18.52
2023-02-14T17:44:05.733Z,18.50
2023-02-14T17:47:10.736Z,18.95
2023-02-14T17:50:14.685Z,19.70
2023-02-14T17:53:18.466Z,19.98
2023-02-14T17:56:25.652Z,20.67
2023-02-14T17:59:27.820Z,20.83
2023-02-14T18:02:30.304Z,20.60
2023-02-14T18:05:36.315Z,21.55
2023-02-14T18:08:46.243Z,21.75
2023-02-14T18:11:50.391Z,21.93
2023-02-14T18:14:53.327Z,22.02
2023-02-14T18:17:55.979Z,22.77
2023-02-14T18:21:02.025Z,22.42
2023-02-14T18:24:04.991Z,22.50
2023-02-14T18:27:07.852Z,21.90
2023-02-14T18:30:10.879Z,23.02
2023-02-14T18:33:13.641Z,23.52
2023-02-14T18:36:24.126Z,25.23
2023-02-14T18:39:26.860Z,25.48
2023-02-14T18:42:30.598Z,25.10
2023-02-14T18:45:37.759Z,26.75
2023-02-14T18:48:41.350Z,26.35
2023-02-14T18:51:43.683Z,25.58
2023-02-14T18:54:46.185Z,25.83
2023-02-14T18:57:48.370Z,27.00
2023-02-14T19:00:52.440Z,28.25
2023-02-14T19:03:55.686Z,27.73
2023-02-14T19:06:58.425Z,26.58
2023-02-14T19:10:03.364Z,27.35
2023-02-14T19:13:06.697Z,26.23
2023-02-14T19:16:15.011Z,27.50
2023-02-14T19:19:18.174Z,27.27
2023-02-14T19:22:20.895Z,26.75
2023-02-14T19:25:23.362Z,25.85
2023-02-14T19:28:26.150Z,26.58
2023-02-14T19:31:29.414Z,25.67
2023-02-14T19:34:33.319Z,25.90
2023-02-14T19:37:36.015Z,26.02
2023-02-14T19:40:44.554Z,25.15
2023-02-14T19:43:48.871Z,27.33
2023-02-14T19:46:54.350Z,27.02
2023-02-14T19:49:57.068Z,26.98
2023-02-14T19:52:59.626Z,26.90
2023-02-14T19:56:02.220Z,27.42
2023-02-14T19:59:13.547Z,28.27
2023-02-14T20:02:19.541Z,28.15
2023-02-14T20:05:22.860Z,28.52
2023-02-14T20:08:25.108Z,27.55
2023-02-14T20:11:49.490Z,28.10
2023-02-14T20:14:54.225Z,28.23
2023-02-14T20:17:57.141Z,29.25
2023-02-14T20:21:02.461Z,27.60
2023-02-14T20:24:06.101Z,27.30
2023-02-14T20:27:08.530Z,28.42
2023-02-14T20:30:12.121Z,29.00
2023-02-14T20:33:14.666Z,29.10
2023-02-14T20:36:19.426Z,29.33
2023-02-14T20:39:26.532Z,28.73
2023-02-14T20:42:29.266Z,29.63
2023-02-14T20:45:31.545Z,28.67
2023-02-14T20:48:34.970Z,29.83
2023-02-14T20:51:37.157Z,29.85
2023-02-14T20:54:42.269Z,29.65
2023-02-14T20:57:44.582Z,29.58
2023-02-14T21:00:48.858Z,29.48
2023-02-14T21:03:52.543Z,27.75
2023-02-14T21:06:57.603Z,28.05
2023-02-14T21:09:59.980Z,28.55
2023-02-14T21:13:05.785Z,31.70
2023-02-14T21:16:16.493Z,30.75
2023-02-14T21:19:19.767Z,29.33
2023-02-14T21:22:22.004Z,30.08
2023-02-14T21:25:26.643Z,29.92
2023-02-14T21:28:30.074Z,29.55
2023-02-14T21:31:34.285Z,29.37
2023-02-14T21:34:37.915Z,29.00
2023-02-14T21:37:40.448Z,29.75
2023-02-14T21:40:42.957Z,29.35
2023-02-14T21:43:47.853Z,30.95
2023-02-14T21:46:50.283Z,28.77
2023-02-14T21:50:13.638Z,27.42
2023-02-14T21:53:16.721Z,28.08
2023-02-14T21:56:20.187Z,28.50
2023-02-14T21:59:23.812Z,28.23
2023-02-14T22:02:26.769Z,27.92
2023-02-14T22:05:30.022Z,28.52
2023-02-14T22:08:33.223Z,26.98
2023-02-14T22:11:35.852Z,27.05
2023-02-14T22:14:38.358Z,27.05
2023-02-14T22:17:42.025Z,27.20
2023-02-14T22:20:44.990Z,27.27
2023-02-14T22:23:48.079Z,27.13
2023-02-14T22:26:50.752Z,28.27
2023-02-14T22:29:53.321Z,26.55
2023-02-14T22:32:57.348Z,28.50
2023-02-14T22:36:00.882Z,27.90
2023-02-14T22:39:04.562Z,28.08
2023-02-14T22:42:10.371Z,28.85
2023-02-14T22:45:12.672Z,28.25
2023-02-14T22:48:15.491Z,26.85
2023-02-14T22:51:32.862Z,27.13
2023-02-14T22:54:35.603Z,27.85
2023-02-14T22:57:39.141Z,27.73
2023-02-14T23:00:43.876Z,27.17
2023-02-14T23:03:48.377Z,27.58
2023-02-14T23:06:52.679Z,27.20
2023-02-14T23:09:56.212Z,26.85
2023-02-14T23:13:17.561Z,27.70
2023-02-14T23:16:38.973Z,24.92
2023-02-14T23:20:03.264Z,27.13
2023-02-14T23:23:05.718Z,25.10
2023-02-14T23:26:08.424Z,26.98
2023-02-14T23:29:11.911Z,26.35
2023-02-14T23:32:17.345Z,26.83
2023-02-14T23:35:19.707Z,26.12
2023-02-14T23:38:23.196Z,26.83
2023-02-14T23:41:44.121Z,27.25
2023-02-14T23:44:47.424Z,26.45
2023-02-14T23:47:50.024Z,27.33
2023-02-14T23:50:52.481Z,29.35
2023-02-14T23:53:55.048Z,28.73
2023-02-14T23:56:59.906Z,28.42
